WetterOnline ( https://www.wetteronline.de )

Wetter aktuell Isny

Aktuelles Wetter: Leutkirch-Herlazhofen (671m)

6-stündlich | Neueste Meldungen
Ortszeit Temperatur Wetter
Di, 22.09. 20:00 17.2° C wolkig
Di, 22.09. 14:00 21.0° C leicht bewölkt
Di, 22.09. 8:00 12.1° C bedeckt
Di, 22.09. 2:00 10.9° C leicht bewölkt
Mo, 21.09. 20:00 18.1° C bedeckt
Mo, 21.09. 14:00 20.4° C leicht bewölkt
Mo, 21.09. 8:00 10.5° C wolkenlos
Mo, 21.09. 2:00 12.0° C bewölkt
Ortszeit Temperatur Wetter
Di, 22.09. 23:30 15.2° C bewölkt
Di, 22.09. 23:20 15.2° C bewölkt
Di, 22.09. 23:10 15.6° C bewölkt
Di, 22.09. 23:00 16.3° C bedeckt
Di, 22.09. 22:50 16.3° C bedeckt
Di, 22.09. 22:40 15.4° C wolkig
Di, 22.09. 22:30 14.8° C wolkig
Di, 22.09. 22:00 14.3° C wolkig
Di, 22.09. 21:30 14.8° C bewölkt
Di, 22.09. 21:00 15.3° C bedeckt
Di, 22.09. 20:30 16.3° C leicht bewölkt
Ortszeit Relative Feuchte Sichtweite
Di, 22.09. 20:00 84% 27 km
Di, 22.09. 14:00 66% 25 km
Di, 22.09. 8:00 97% 13 km
Di, 22.09. 2:00 95% 35 km
Mo, 21.09. 20:00 77% 30 km
Mo, 21.09. 14:00 65% 30 km
Mo, 21.09. 8:00 98% 3.1 km
Mo, 21.09. 2:00 98% 4.5 km
Ortszeit Relative Feuchte Sichtweite
Di, 22.09. 23:30 87% 35 km
Di, 22.09. 23:20 87% -
Di, 22.09. 23:10 88% -
Di, 22.09. 23:00 90% 17 km
Di, 22.09. 22:50 90% -
Di, 22.09. 22:40 93% -
Di, 22.09. 22:30 94% 20 km
Di, 22.09. 22:00 96% 10 km
Di, 22.09. 21:30 95% 12 km
Di, 22.09. 21:00 93% 20 km
Di, 22.09. 20:30 87% 28 km
Ortszeit Niederschlagsmenge Niederschlagsart
Di, 22.09. 20:00 0.0 l/m2 in 12 Std. -
Di, 22.09. 14:00 0.0 l/m2 in 6 Std. -
Di, 22.09. 8:00 1 l/m2 in 12 Std. -
Di, 22.09. 2:00 1 l/m2 in 6 Std. Regen
Mo, 21.09. 20:00 0.0 l/m2 in 12 Std. -
Mo, 21.09. 14:00 0.0 l/m2 in 6 Std. -
Mo, 21.09. 8:00 0.0 l/m2 in 12 Std. -
Mo, 21.09. 2:00 0.0 l/m2 in 6 Std. -
Ortszeit Niederschlagsmenge Niederschlagsart
Di, 22.09. 23:30 0.0 l/m2 in 1 Std. -
Di, 22.09. 23:20 keine Meldung -
Di, 22.09. 23:10 keine Meldung -
Di, 22.09. 23:00 0.0 l/m2 in 1 Std. -
Di, 22.09. 22:50 keine Meldung -
Di, 22.09. 22:40 keine Meldung -
Di, 22.09. 22:30 0.0 l/m2 in 1 Std. -
Di, 22.09. 22:00 0.0 l/m2 in 1 Std. -
Di, 22.09. 21:30 0.0 l/m2 in 1 Std. -
Di, 22.09. 21:00 0.0 l/m2 in 1 Std. -
Di, 22.09. 20:30 0.0 l/m2 in 1 Std. -
Ortszeit Stärke Spitze Richtung
km/h Bft. km/h Grad Sektor
Di, 22.09. 20:00 9 2 13 190° S
Di, 22.09. 14:00 7 2 18 240° SW
Di, 22.09. 8:00 4 1 14 90° O
Di, 22.09. 2:00 7 2 22 150° SO
Mo, 21.09. 20:00 9 2 19 150° SO
Mo, 21.09. 14:00 6 1 20 310° NW
Mo, 21.09. 8:00 4 1 7 140° SO
Mo, 21.09. 2:00 0 0 14 - -
Ortszeit Stärke Spitze Richtung
km/h Bft. km/h Grad Sektor
Di, 22.09. 23:30 15 3 31 220° SW
Di, 22.09. 23:20 15 3 - 220° SW
Di, 22.09. 23:10 22 4 - 230° SW
Di, 22.09. 23:00 13 3 22 210° SW
Di, 22.09. 22:50 13 3 - 210° SW
Di, 22.09. 22:40 11 2 - 190° S
Di, 22.09. 22:30 4 1 7 180° S
Di, 22.09. 22:00 6 1 7 140° SO
Di, 22.09. 21:30 2 1 7 100° O
Di, 22.09. 21:00 4 1 11 110° O
Di, 22.09. 20:30 4 1 11 130° SO
Ortszeit Untergrenze Bedeckung Gattung
total tief tief mittel hoch
Di, 22.09. 20:00 750 m 7/8 1/8 - - -
Di, 22.09. 14:00 1800 m 3/8 3/8 - - -
Di, 22.09. 8:00 3600 m 8/8 8/8 - - -
Di, 22.09. 2:00 3600 m 4/8 4/8 - - -
Mo, 21.09. 20:00 3000 m 8/8 8/8 - - -
Mo, 21.09. 14:00 660 m 2/8 2/8 - - -
Mo, 21.09. 8:00 3000 m 0/8 0/8 - - -
Mo, 21.09. 2:00 3600 m 7/8 7/8 - - -
Ortszeit Bedeckungsgrad in Achtel und Wolkenuntergrenze
Di, 22.09. 23:30 1(780m) 7(900m) 7(1200m)
Di, 22.09. 23:20 1(780m) 7(900m) 7(1200m)
Di, 22.09. 23:10 7(810m) 7(1200m) 7(1500m)
Di, 22.09. 23:00 5(720m) 7(1500m) 8(2700m)
Di, 22.09. 22:50 5(720m) 7(1500m) 8(2700m)
Di, 22.09. 22:40 2(660m) 8(3600m) 8(9000m)
Di, 22.09. 22:30 5(2700m) 7(3600m) 7(9000m)
Di, 22.09. 22:00 1(2400m) 8(3600m)
Di, 22.09. 21:30 4(3000m) 7(3600m)
Di, 22.09. 21:00 8(2700m) 8(3600m)
Di, 22.09. 20:30 1(2700m) 5(6900m) 6(7800m)
Ortszeit Luftdruck NN (hPa) Tendenz (hPa in 3 Std.)
Di, 22.09. 20:00 1009 - 0,6
Di, 22.09. 14:00 1011 - 1,3
Di, 22.09. 8:00 1015 - 0,2
Di, 22.09. 2:00 1016 - 0,5
Mo, 21.09. 20:00 1014 + 0,3
Mo, 21.09. 14:00 1014 - 0,6
Mo, 21.09. 8:00 1017 + 0,3
Mo, 21.09. 2:00 1016 + 0,2
Ortszeit Luftdruck NN (hPa) Tendenz (hPa in 3 Std.)
Di, 22.09. 23:30 1010 + 0,5
Di, 22.09. 23:20 1010 keine Meldung
Di, 22.09. 23:10 1010 keine Meldung
Di, 22.09. 23:00 1010 + 0,3
Di, 22.09. 22:50 1010 keine Meldung
Di, 22.09. 22:40 1010 keine Meldung
Di, 22.09. 22:30 1010 0,0
Di, 22.09. 22:00 1010 0,0
Di, 22.09. 21:30 1010 0,0
Di, 22.09. 21:00 1010 - 0,2
Di, 22.09. 20:30 1009 - 0,4
Ortszeit Schneehöhe (cm)
Di, 22.09. 20:00 0
Di, 22.09. 14:00 0
Di, 22.09. 8:00 0
Di, 22.09. 2:00 0
Mo, 21.09. 20:00 0
Mo, 21.09. 14:00 0
Mo, 21.09. 8:00 0
Mo, 21.09. 2:00 0
Ortszeit Schneehöhe (cm)
Di, 22.09. 23:30 0
Di, 22.09. 23:20 0
Di, 22.09. 23:10 0
Di, 22.09. 23:00 0
Di, 22.09. 22:50 0
Di, 22.09. 22:40 0
Di, 22.09. 22:30 0
Di, 22.09. 22:00 0
Di, 22.09. 21:30 0
Di, 22.09. 21:00 0
Di, 22.09. 20:30 0
Link zu dieser Seite / Seite empfehlen

Das Wetter in ...